sensor_id;sensor_type;location;lat;lon;timestamp;temperature;humidity
1307;DHT22;646;48.696;9.114;2023-01-15T00:00:49;9.10;99.90
1307;DHT22;646;48.696;9.114;2023-01-15T00:03:14;9.20;99.90
1307;DHT22;646;48.696;9.114;2023-01-15T00:05:40;9.20;99.90
1307;DHT22;646;48.696;9.114;2023-01-15T00:08:05;9.10;99.90
1307;DHT22;646;48.696;9.114;2023-01-15T00:10:31;9.40;99.90
1307;DHT22;646;48.696;9.114;2023-01-15T00:12:56;9.30;99.90
1307;DHT22;646;48.696;9.114;2023-01-15T00:15:22;9.10;99.90
1307;DHT22;646;48.696;9.114;2023-01-15T00:17:47;9.30;99.90
1307;DHT22;646;48.696;9.114;2023-01-15T00:20:13;9.10;99.90
1307;DHT22;646;48.696;9.114;2023-01-15T00:22:38;9.50;99.90
1307;DHT22;646;48.696;9.114;2023-01-15T00:25:05;8.70;99.90
1307;DHT22;646;48.696;9.114;2023-01-15T00:27:49;9.20;99.90
1307;DHT22;646;48.696;9.114;2023-01-15T00:30:15;9.50;99.90
1307;DHT22;646;48.696;9.114;2023-01-15T00:32:42;8.90;99.90
1307;DHT22;646;48.696;9.114;2023-01-15T00:35:13;9.30;99.90
1307;DHT22;646;48.696;9.114;2023-01-15T00:37:39;9.30;99.90
1307;DHT22;646;48.696;9.114;2023-01-15T00:40:05;9.50;99.90
1307;DHT22;646;48.696;9.114;2023-01-15T00:42:30;9.50;99.90
1307;DHT22;646;48.696;9.114;2023-01-15T00:44:56;9.60;99.90
1307;DHT22;646;48.696;9.114;2023-01-15T00:47:21;9.30;99.90
1307;DHT22;646;48.696;9.114;2023-01-15T00:49:47;9.50;99.90
1307;DHT22;646;48.696;9.114;2023-01-15T00:52:14;9.60;99.90
1307;DHT22;646;48.696;9.114;2023-01-15T00:54:39;9.00;99.90
1307;DHT22;646;48.696;9.114;2023-01-15T00:57:05;9.40;99.90
1307;DHT22;646;48.696;9.114;2023-01-15T00:59:30;9.10;99.90
1307;DHT22;646;48.696;9.114;2023-01-15T01:01:56;9.70;99.90
1307;DHT22;646;48.696;9.114;2023-01-15T01:04:21;8.80;99.90
1307;DHT22;646;48.696;9.114;2023-01-15T01:06:47;9.70;99.90
1307;DHT22;646;48.696;9.114;2023-01-15T01:09:13;9.60;99.90
1307;DHT22;646;48.696;9.114;2023-01-15T01:11:39;9.60;99.90
1307;DHT22;646;48.696;9.114;2023-01-15T01:14:04;9.50;99.90
1307;DHT22;646;48.696;9.114;2023-01-15T01:16:32;9.40;99.90
1307;DHT22;646;48.696;9.114;2023-01-15T01:19:01;9.30;99.90
1307;DHT22;646;48.696;9.114;2023-01-15T01:21:28;9.60;99.90
1307;DHT22;646;48.696;9.114;2023-01-15T01:23:54;9.50;99.90
1307;DHT22;646;48.696;9.114;2023-01-15T01:26:20;8.90;99.90
1307;DHT22;646;48.696;9.114;2023-01-15T01:28:49;9.10;99.90
1307;DHT22;646;48.696;9.114;2023-01-15T01:31:15;9.30;99.90
1307;DHT22;646;48.696;9.114;2023-01-15T01:33:41;9.50;99.90
1307;DHT22;646;48.696;9.114;2023-01-15T01:36:07;9.10;99.90
1307;DHT22;646;48.696;9.114;2023-01-15T01:38:32;9.20;99.90
1307;DHT22;646;48.696;9.114;2023-01-15T01:40:58;9.60;99.90
1307;DHT22;646;48.696;9.114;2023-01-15T01:43:26;9.00;99.90
1307;DHT22;646;48.696;9.114;2023-01-15T01:45:52;9.40;99.90
1307;DHT22;646;48.696;9.114;2023-01-15T01:48:37;9.40;99.90
1307;DHT22;646;48.696;9.114;2023-01-15T01:51:02;9.30;99.90
1307;DHT22;646;48.696;9.114;2023-01-15T01:53:31;9.20;99.90
1307;DHT22;646;48.696;9.114;2023-01-15T01:55:57;9.60;99.90
1307;DHT22;646;48.696;9.114;2023-01-15T01:58:27;9.50;99.90
1307;DHT22;646;48.696;9.114;2023-01-15T02:00:54;9.50;99.90
1307;DHT22;646;48.696;9.114;2023-01-15T02:03:25;9.60;99.90
1307;DHT22;646;48.696;9.114;2023-01-15T02:05:54;9.40;99.90
1307;DHT22;646;48.696;9.114;2023-01-15T02:08:21;9.60;99.90
1307;DHT22;646;48.696;9.114;2023-01-15T02:10:51;9.70;99.90
1307;DHT22;646;48.696;9.114;2023-01-15T02:13:26;9.50;99.90
1307;DHT22;646;48.696;9.114;2023-01-15T02:16:15;9.60;99.90
1307;DHT22;646;48.696;9.114;2023-01-15T02:27:11;9.70;99.90
1307;DHT22;646;48.696;9.114;2023-01-15T02:32:43;9.60;99.90
1307;DHT22;646;48.696;9.114;2023-01-15T02:35:22;9.50;99.90
1307;DHT22;646;48.696;9.114;2023-01-15T02:37:51;9.80;99.90
1307;DHT22;646;48.696;9.114;2023-01-15T02:40:19;9.90;99.90
1307;DHT22;646;48.696;9.114;2023-01-15T02:42:48;9.80;99.90
1307;DHT22;646;48.696;9.114;2023-01-15T02:45:15;10.00;99.90
1307;DHT22;646;48.696;9.114;2023-01-15T02:47:42;9.90;99.90
1307;DHT22;646;48.696;9.114;2023-01-15T02:50:12;10.00;99.90
1307;DHT22;646;48.696;9.114;2023-01-15T02:52:43;9.90;99.90
1307;DHT22;646;48.696;9.114;2023-01-15T02:55:18;10.10;99.90
1307;DHT22;646;48.696;9.114;2023-01-15T02:57:46;9.90;99.90
1307;DHT22;646;48.696;9.114;2023-01-15T03:00:14;9.50;99.90
1307;DHT22;646;48.696;9.114;2023-01-15T03:02:55;10.00;99.90
1307;DHT22;646;48.696;9.114;2023-01-15T03:05:26;10.40;99.90
1307;DHT22;646;48.696;9.114;2023-01-15T03:07:58;10.10;99.90
1307;DHT22;646;48.696;9.114;2023-01-15T03:13:02;10.20;99.90
1307;DHT22;646;48.696;9.114;2023-01-15T03:16:01;10.10;99.90
1307;DHT22;646;48.696;9.114;2023-01-15T03:18:55;10.10;99.90
1307;DHT22;646;48.696;9.114;2023-01-15T03:21:39;10.00;99.90
1307;DHT22;646;48.696;9.114;2023-01-15T03:24:09;9.60;99.90
1307;DHT22;646;48.696;9.114;2023-01-15T03:26:35;10.00;99.90
1307;DHT22;646;48.696;9.114;2023-01-15T03:29:03;9.80;99.90
1307;DHT22;646;48.696;9.114;2023-01-15T03:31:32;9.60;99.90
1307;DHT22;646;48.696;9.114;2023-01-15T03:33:57;10.20;99.90
1307;DHT22;646;48.696;9.114;2023-01-15T03:36:23;10.50;99.90
1307;DHT22;646;48.696;9.114;2023-01-15T03:38:49;10.20;99.90
1307;DHT22;646;48.696;9.114;2023-01-15T03:52:04;10.00;99.90
1307;DHT22;646;48.696;9.114;2023-01-15T03:57:26;10.70;99.90
1307;DHT22;646;48.696;9.114;2023-01-15T04:00:00;10.60;99.90
1307;DHT22;646;48.696;9.114;2023-01-15T04:02:29;10.10;99.90
1307;DHT22;646;48.696;9.114;2023-01-15T04:04:56;10.70;99.90
1307;DHT22;646;48.696;9.114;2023-01-15T04:07:23;10.40;99.90
1307;DHT22;646;48.696;9.114;2023-01-15T04:09:50;10.40;99.90
1307;DHT22;646;48.696;9.114;2023-01-15T04:12:15;10.40;99.90
1307;DHT22;646;48.696;9.114;2023-01-15T04:14:41;10.50;99.90
1307;DHT22;646;48.696;9.114;2023-01-15T04:17:06;10.80;99.90
1307;DHT22;646;48.696;9.114;2023-01-15T04:19:32;10.40;99.90
1307;DHT22;646;48.696;9.114;2023-01-15T04:21:58;10.30;99.90
1307;DHT22;646;48.696;9.114;2023-01-15T04:24:23;10.40;99.90
1307;DHT22;646;48.696;9.114;2023-01-15T04:26:49;10.90;99.90
1307;DHT22;646;48.696;9.114;2023-01-15T04:29:14;10.80;99.90
1307;DHT22;646;48.696;9.114;2023-01-15T04:31:40;10.90;99.90
1307;DHT22;646;48.696;9.114;2023-01-15T04:34:05;11.00;99.90
1307;DHT22;646;48.696;9.114;2023-01-15T04:36:31;10.90;99.90
1307;DHT22;646;48.696;9.114;2023-01-15T04:39:00;10.80;99.90
1307;DHT22;646;48.696;9.114;2023-01-15T04:41:26;10.80;99.90
1307;DHT22;646;48.696;9.114;2023-01-15T04:44:10;10.50;99.90
1307;DHT22;646;48.696;9.114;2023-01-15T04:46:38;10.90;99.90
1307;DHT22;646;48.696;9.114;2023-01-15T04:49:05;11.00;99.90
1307;DHT22;646;48.696;9.114;2023-01-15T04:51:31;11.00;99.90
1307;DHT22;646;48.696;9.114;2023-01-15T04:53:56;11.00;99.90
1307;DHT22;646;48.696;9.114;2023-01-15T04:56:22;10.40;99.90
1307;DHT22;646;48.696;9.114;2023-01-15T04:58:48;11.10;99.90
1307;DHT22;646;48.696;9.114;2023-01-15T05:01:15;10.90;99.90
1307;DHT22;646;48.696;9.114;2023-01-15T05:03:41;11.20;99.90
1307;DHT22;646;48.696;9.114;2023-01-15T05:06:07;11.10;99.90
1307;DHT22;646;48.696;9.114;2023-01-15T05:08:33;10.80;99.90
1307;DHT22;646;48.696;9.114;2023-01-15T05:11:03;11.10;99.90
1307;DHT22;646;48.696;9.114;2023-01-15T05:13:29;11.00;99.90
1307;DHT22;646;48.696;9.114;2023-01-15T05:16:06;11.20;99.90
1307;DHT22;646;48.696;9.114;2023-01-15T05:18:32;10.80;99.90
1307;DHT22;646;48.696;9.114;2023-01-15T05:20:57;11.10;99.90
1307;DHT22;646;48.696;9.114;2023-01-15T05:23:23;11.10;99.90
1307;DHT22;646;48.696;9.114;2023-01-15T05:25:48;11.20;99.90
1307;DHT22;646;48.696;9.114;2023-01-15T05:28:14;10.50;99.90
1307;DHT22;646;48.696;9.114;2023-01-15T05:30:39;11.10;99.90
1307;DHT22;646;48.696;9.114;2023-01-15T05:33:05;10.90;99.90
1307;DHT22;646;48.696;9.114;2023-01-15T05:35:30;11.00;99.90
1307;DHT22;646;48.696;9.114;2023-01-15T05:37:56;10.80;99.90
1307;DHT22;646;48.696;9.114;2023-01-15T05:40:21;10.90;99.90
1307;DHT22;646;48.696;9.114;2023-01-15T05:42:47;11.20;99.90
1307;DHT22;646;48.696;9.114;2023-01-15T05:45:12;10.10;99.90
1307;DHT22;646;48.696;9.114;2023-01-15T05:47:38;9.70;99.90
1307;DHT22;646;48.696;9.114;2023-01-15T05:50:03;9.70;99.90
1307;DHT22;646;48.696;9.114;2023-01-15T05:52:29;9.70;99.90
1307;DHT22;646;48.696;9.114;2023-01-15T05:54:55;8.70;99.90
1307;DHT22;646;48.696;9.114;2023-01-15T05:57:20;9.30;99.90
1307;DHT22;646;48.696;9.114;2023-01-15T05:59:46;8.60;99.90
1307;DHT22;646;48.696;9.114;2023-01-15T06:02:13;9.00;99.90
1307;DHT22;646;48.696;9.114;2023-01-15T06:04:39;8.70;99.90
1307;DHT22;646;48.696;9.114;2023-01-15T06:07:04;8.20;99.90
1307;DHT22;646;48.696;9.114;2023-01-15T06:09:30;8.40;99.90
1307;DHT22;646;48.696;9.114;2023-01-15T06:11:56;8.00;99.90
1307;DHT22;646;48.696;9.114;2023-01-15T06:14:22;7.80;99.90
1307;DHT22;646;48.696;9.114;2023-01-15T06:16:47;7.50;99.90
1307;DHT22;646;48.696;9.114;2023-01-15T06:19:13;8.20;99.90
1307;DHT22;646;48.696;9.114;2023-01-15T06:21:39;7.90;99.90
1307;DHT22;646;48.696;9.114;2023-01-15T06:24:05;7.70;99.90
1307;DHT22;646;48.696;9.114;2023-01-15T06:26:31;7.90;99.90
1307;DHT22;646;48.696;9.114;2023-01-15T06:28:56;7.80;99.90
1307;DHT22;646;48.696;9.114;2023-01-15T06:31:23;7.60;99.90
1307;DHT22;646;48.696;9.114;2023-01-15T06:33:51;7.80;99.90
1307;DHT22;646;48.696;9.114;2023-01-15T06:36:19;7.40;99.90
1307;DHT22;646;48.696;9.114;2023-01-15T06:38:48;7.10;99.90
1307;DHT22;646;48.696;9.114;2023-01-15T06:41:19;7.40;99.90
1307;DHT22;646;48.696;9.114;2023-01-15T06:44:04;7.60;99.90
1307;DHT22;646;48.696;9.114;2023-01-15T06:46:49;7.60;99.90
1307;DHT22;646;48.696;9.114;2023-01-15T06:49:34;6.90;99.90
1307;DHT22;646;48.696;9.114;2023-01-15T06:52:01;7.30;99.90
1307;DHT22;646;48.696;9.114;2023-01-15T06:54:26;7.20;99.90
1307;DHT22;646;48.696;9.114;2023-01-15T06:56:52;7.60;99.90
1307;DHT22;646;48.696;9.114;2023-01-15T06:59:18;7.20;99.90
1307;DHT22;646;48.696;9.114;2023-01-15T07:01:44;7.20;99.90
1307;DHT22;646;48.696;9.114;2023-01-15T07:04:10;7.30;99.90
1307;DHT22;646;48.696;9.114;2023-01-15T07:06:35;7.20;99.90
1307;DHT22;646;48.696;9.114;2023-01-15T07:09:01;7.30;99.90
1307;DHT22;646;48.696;9.114;2023-01-15T07:11:26;7.10;99.90
1307;DHT22;646;48.696;9.114;2023-01-15T07:13:52;7.00;99.90
1307;DHT22;646;48.696;9.114;2023-01-15T07:16:31;6.60;99.90
1307;DHT22;646;48.696;9.114;2023-01-15T07:18:56;6.60;99.90
1307;DHT22;646;48.696;9.114;2023-01-15T07:21:22;7.20;99.90
1307;DHT22;646;48.696;9.114;2023-01-15T07:23:48;7.10;99.90
1307;DHT22;646;48.696;9.114;2023-01-15T07:26:13;7.10;99.90
1307;DHT22;646;48.696;9.114;2023-01-15T07:28:39;6.50;99.90
1307;DHT22;646;48.696;9.114;2023-01-15T07:31:04;6.80;99.90
1307;DHT22;646;48.696;9.114;2023-01-15T07:33:30;7.00;99.90
1307;DHT22;646;48.696;9.114;2023-01-15T07:35:55;6.80;99.90
1307;DHT22;646;48.696;9.114;2023-01-15T07:38:21;6.40;99.90
1307;DHT22;646;48.696;9.114;2023-01-15T07:40:47;6.30;99.90
1307;DHT22;646;48.696;9.114;2023-01-15T07:43:33;6.90;99.90
1307;DHT22;646;48.696;9.114;2023-01-15T07:46:17;6.60;99.90
1307;DHT22;646;48.696;9.114;2023-01-15T07:49:00;6.60;99.90
1307;DHT22;646;48.696;9.114;2023-01-15T07:51:44;6.30;99.90
1307;DHT22;646;48.696;9.114;2023-01-15T07:54:10;6.70;99.90
1307;DHT22;646;48.696;9.114;2023-01-15T07:56:36;6.40;99.90
1307;DHT22;646;48.696;9.114;2023-01-15T07:59:02;6.40;99.90
1307;DHT22;646;48.696;9.114;2023-01-15T08:01:27;6.60;99.90
1307;DHT22;646;48.696;9.114;2023-01-15T08:03:52;6.40;99.90
1307;DHT22;646;48.696;9.114;2023-01-15T08:06:18;6.40;99.90
1307;DHT22;646;48.696;9.114;2023-01-15T08:08:43;6.40;99.90
1307;DHT22;646;48.696;9.114;2023-01-15T08:11:09;6.10;99.90
1307;DHT22;646;48.696;9.114;2023-01-15T08:13:53;6.30;99.90
1307;DHT22;646;48.696;9.114;2023-01-15T08:16:37;6.40;99.90
1307;DHT22;646;48.696;9.114;2023-01-15T08:19:03;6.50;99.90
1307;DHT22;646;48.696;9.114;2023-01-15T08:21:28;6.40;99.90
1307;DHT22;646;48.696;9.114;2023-01-15T08:23:54;6.20;99.90
1307;DHT22;646;48.696;9.114;2023-01-15T08:26:19;6.30;99.90
1307;DHT22;646;48.696;9.114;2023-01-15T08:28:45;5.80;99.90
1307;DHT22;646;48.696;9.114;2023-01-15T08:31:10;6.20;99.90
1307;DHT22;646;48.696;9.114;2023-01-15T08:33:36;6.30;99.90
1307;DHT22;646;48.696;9.114;2023-01-15T08:36:01;5.70;99.90
1307;DHT22;646;48.696;9.114;2023-01-15T08:38:27;6.10;99.90
1307;DHT22;646;48.696;9.114;2023-01-15T08:40:53;6.50;99.90
1307;DHT22;646;48.696;9.114;2023-01-15T08:43:27;6.30;99.90
1307;DHT22;646;48.696;9.114;2023-01-15T08:45:55;6.40;99.90
1307;DHT22;646;48.696;9.114;2023-01-15T08:48:22;6.20;99.90
1307;DHT22;646;48.696;9.114;2023-01-15T08:50:48;6.10;99.90
1307;DHT22;646;48.696;9.114;2023-01-15T08:53:15;5.80;99.90
1307;DHT22;646;48.696;9.114;2023-01-15T08:55:40;6.00;99.90
1307;DHT22;646;48.696;9.114;2023-01-15T08:58:06;6.20;99.90
1307;DHT22;646;48.696;9.114;2023-01-15T09:00:32;5.90;99.90
1307;DHT22;646;48.696;9.114;2023-01-15T09:02:57;6.20;99.90
1307;DHT22;646;48.696;9.114;2023-01-15T09:05:23;6.50;99.90
1307;DHT22;646;48.696;9.114;2023-01-15T09:07:48;6.50;99.90
1307;DHT22;646;48.696;9.114;2023-01-15T09:10:14;6.10;99.90
1307;DHT22;646;48.696;9.114;2023-01-15T09:12:41;6.40;99.90
1307;DHT22;646;48.696;9.114;2023-01-15T09:15:07;6.60;99.90
1307;DHT22;646;48.696;9.114;2023-01-15T09:17:32;6.20;99.90
1307;DHT22;646;48.696;9.114;2023-01-15T09:19:58;6.30;99.90
1307;DHT22;646;48.696;9.114;2023-01-15T09:22:24;6.40;99.90
1307;DHT22;646;48.696;9.114;2023-01-15T09:24:54;5.90;99.90
1307;DHT22;646;48.696;9.114;2023-01-15T09:27:19;6.40;99.90
1307;DHT22;646;48.696;9.114;2023-01-15T09:29:45;6.60;99.90
1307;DHT22;646;48.696;9.114;2023-01-15T09:32:10;6.40;99.90
1307;DHT22;646;48.696;9.114;2023-01-15T09:34:36;6.60;99.90
1307;DHT22;646;48.696;9.114;2023-01-15T09:37:01;6.00;99.90
1307;DHT22;646;48.696;9.114;2023-01-15T09:39:27;6.60;99.90
1307;DHT22;646;48.696;9.114;2023-01-15T09:47:11;6.60;99.90
1307;DHT22;646;48.696;9.114;2023-01-15T09:55:33;6.20;99.90
1307;DHT22;646;48.696;9.114;2023-01-15T09:58:02;6.50;99.90
1307;DHT22;646;48.696;9.114;2023-01-15T10:00:34;6.50;99.90
1307;DHT22;646;48.696;9.114;2023-01-15T10:08:44;6.40;99.90
1307;DHT22;646;48.696;9.114;2023-01-15T10:13:51;6.00;99.90
1307;DHT22;646;48.696;9.114;2023-01-15T10:16:24;6.30;99.90
1307;DHT22;646;48.696;9.114;2023-01-15T10:18:51;6.30;99.90
1307;DHT22;646;48.696;9.114;2023-01-15T10:21:39;6.30;99.90
1307;DHT22;646;48.696;9.114;2023-01-15T10:24:18;5.90;99.90
1307;DHT22;646;48.696;9.114;2023-01-15T10:26:57;6.40;99.90
1307;DHT22;646;48.696;9.114;2023-01-15T10:37:32;6.40;99.90
1307;DHT22;646;48.696;9.114;2023-01-15T10:43:24;6.40;99.90
1307;DHT22;646;48.696;9.114;2023-01-15T10:45:59;6.20;99.90
1307;DHT22;646;48.696;9.114;2023-01-15T10:48:42;6.30;99.90
1307;DHT22;646;48.696;9.114;2023-01-15T10:51:21;6.30;99.90
1307;DHT22;646;48.696;9.114;2023-01-15T10:54:10;5.60;99.90
1307;DHT22;646;48.696;9.114;2023-01-15T10:59:43;5.80;99.90
1307;DHT22;646;48.696;9.114;2023-01-15T11:02:27;5.80;99.90
1307;DHT22;646;48.696;9.114;2023-01-15T11:04:54;5.90;99.90
1307;DHT22;646;48.696;9.114;2023-01-15T11:07:22;5.70;99.90
1307;DHT22;646;48.696;9.114;2023-01-15T11:09:51;5.90;99.90
1307;DHT22;646;48.696;9.114;2023-01-15T11:12:26;5.40;99.90
1307;DHT22;646;48.696;9.114;2023-01-15T11:15:31;5.70;99.90
1307;DHT22;646;48.696;9.114;2023-01-15T11:18:24;5.50;99.90
1307;DHT22;646;48.696;9.114;2023-01-15T11:21:15;5.50;99.90
1307;DHT22;646;48.696;9.114;2023-01-15T11:23:41;5.40;99.90
1307;DHT22;646;48.696;9.114;2023-01-15T11:26:08;5.10;99.90
1307;DHT22;646;48.696;9.114;2023-01-15T11:28:39;4.60;99.90
1307;DHT22;646;48.696;9.114;2023-01-15T11:31:06;5.30;99.90
1307;DHT22;646;48.696;9.114;2023-01-15T11:33:34;4.80;99.90
1307;DHT22;646;48.696;9.114;2023-01-15T11:36:02;4.90;99.90
1307;DHT22;646;48.696;9.114;2023-01-15T11:38:43;5.00;99.90
1307;DHT22;646;48.696;9.114;2023-01-15T11:41:21;4.80;99.90
1307;DHT22;646;48.696;9.114;2023-01-15T11:43:57;4.10;99.90
1307;DHT22;646;48.696;9.114;2023-01-15T11:46:44;4.70;99.90
1307;DHT22;646;48.696;9.114;2023-01-15T11:49:29;4.60;99.90
1307;DHT22;646;48.696;9.114;2023-01-15T11:52:19;4.00;99.90
1307;DHT22;646;48.696;9.114;2023-01-15T11:54:51;4.00;99.90
1307;DHT22;646;48.696;9.114;2023-01-15T11:57:30;3.90;99.90
1307;DHT22;646;48.696;9.114;2023-01-15T11:59:56;4.00;99.90
1307;DHT22;646;48.696;9.114;2023-01-15T12:04:48;4.60;99.90
1307;DHT22;646;48.696;9.114;2023-01-15T12:07:17;4.30;99.90
1307;DHT22;646;48.696;9.114;2023-01-15T12:10:01;4.60;99.90
1307;DHT22;646;48.696;9.114;2023-01-15T12:12:35;4.30;99.90
1307;DHT22;646;48.696;9.114;2023-01-15T12:20:28;4.50;99.90
1307;DHT22;646;48.696;9.114;2023-01-15T12:26:07;4.50;99.90
1307;DHT22;646;48.696;9.114;2023-01-15T12:28:51;4.30;99.90
1307;DHT22;646;48.696;9.114;2023-01-15T12:31:26;4.60;99.90
1307;DHT22;646;48.696;9.114;2023-01-15T12:34:05;4.70;99.90
1307;DHT22;646;48.696;9.114;2023-01-15T12:36:42;4.50;99.90
1307;DHT22;646;48.696;9.114;2023-01-15T12:39:17;4.30;99.90
1307;DHT22;646;48.696;9.114;2023-01-15T12:41:46;3.90;99.90
1307;DHT22;646;48.696;9.114;2023-01-15T12:44:57;4.50;99.90
1307;DHT22;646;48.696;9.114;2023-01-15T12:52:49;4.20;99.90
1307;DHT22;646;48.696;9.114;2023-01-15T12:55:27;4.50;99.90
1307;DHT22;646;48.696;9.114;2023-01-15T12:57:57;4.50;99.90
1307;DHT22;646;48.696;9.114;2023-01-15T13:00:28;3.80;99.90
1307;DHT22;646;48.696;9.114;2023-01-15T13:05:57;4.40;99.90
1307;DHT22;646;48.696;9.114;2023-01-15T13:08:45;4.30;99.90
1307;DHT22;646;48.696;9.114;2023-01-15T13:11:12;4.60;99.90
1307;DHT22;646;48.696;9.114;2023-01-15T13:13:40;4.40;99.90
1307;DHT22;646;48.696;9.114;2023-01-15T13:18:50;4.00;99.90
1307;DHT22;646;48.696;9.114;2023-01-15T13:21:18;4.60;99.90
1307;DHT22;646;48.696;9.114;2023-01-15T13:27:02;4.70;99.90
1307;DHT22;646;48.696;9.114;2023-01-15T13:32:10;4.90;99.90
1307;DHT22;646;48.696;9.114;2023-01-15T13:35:02;4.80;99.90
1307;DHT22;646;48.696;9.114;2023-01-15T13:37:41;4.70;99.90
1307;DHT22;646;48.696;9.114;2023-01-15T13:40:16;4.80;99.90
1307;DHT22;646;48.696;9.114;2023-01-15T13:42:46;4.70;99.90
1307;DHT22;646;48.696;9.114;2023-01-15T13:47:46;5.00;99.90
1307;DHT22;646;48.696;9.114;2023-01-15T13:50:15;4.80;99.90
1307;DHT22;646;48.696;9.114;2023-01-15T13:52:42;4.70;99.90
1307;DHT22;646;48.696;9.114;2023-01-15T13:57:41;5.00;99.90
1307;DHT22;646;48.696;9.114;2023-01-15T14:03:02;5.90;99.90
1307;DHT22;646;48.696;9.114;2023-01-15T14:05:30;5.90;99.90
1307;DHT22;646;48.696;9.114;2023-01-15T14:07:57;7.00;99.90
1307;DHT22;646;48.696;9.114;2023-01-15T14:10:31;8.00;99.90
1307;DHT22;646;48.696;9.114;2023-01-15T14:18:53;11.60;99.90
1307;DHT22;646;48.696;9.114;2023-01-15T14:27:17;12.90;87.90
1307;DHT22;646;48.696;9.114;2023-01-15T14:35:01;12.50;78.10
1307;DHT22;646;48.696;9.114;2023-01-15T14:37:37;11.90;90.00
1307;DHT22;646;48.696;9.114;2023-01-15T14:40:17;11.80;86.80
1307;DHT22;646;48.696;9.114;2023-01-15T14:42:46;12.60;80.70
1307;DHT22;646;48.696;9.114;2023-01-15T14:45:42;12.40;92.60
1307;DHT22;646;48.696;9.114;2023-01-15T14:51:07;13.50;92.20
1307;DHT22;646;48.696;9.114;2023-01-15T14:56:34;13.80;90.10
1307;DHT22;646;48.696;9.114;2023-01-15T14:59:26;13.40;84.10
1307;DHT22;646;48.696;9.114;2023-01-15T15:02:12;13.50;84.40
1307;DHT22;646;48.696;9.114;2023-01-15T15:04:44;13.50;84.60
1307;DHT22;646;48.696;9.114;2023-01-15T15:07:18;13.00;74.00
1307;DHT22;646;48.696;9.114;2023-01-15T15:10:08;12.80;80.20
1307;DHT22;646;48.696;9.114;2023-01-15T15:15:47;11.70;76.70
1307;DHT22;646;48.696;9.114;2023-01-15T15:18:32;10.60;79.40
1307;DHT22;646;48.696;9.114;2023-01-15T15:21:17;9.70;83.10
1307;DHT22;646;48.696;9.114;2023-01-15T15:23:57;9.70;89.50
1307;DHT22;646;48.696;9.114;2023-01-15T15:26:29;8.70;86.70
1307;DHT22;646;48.696;9.114;2023-01-15T15:29:09;8.80;88.40
1307;DHT22;646;48.696;9.114;2023-01-15T15:31:41;8.10;86.40
1307;DHT22;646;48.696;9.114;2023-01-15T15:34:21;7.20;88.30
1307;DHT22;646;48.696;9.114;2023-01-15T15:36:48;6.70;90.20
1307;DHT22;646;48.696;9.114;2023-01-15T15:39:34;6.30;91.50
1307;DHT22;646;48.696;9.114;2023-01-15T15:42:12;5.80;93.60
1307;DHT22;646;48.696;9.114;2023-01-15T15:44:59;5.20;96.10
1307;DHT22;646;48.696;9.114;2023-01-15T15:47:46;5.20;98.00
1307;DHT22;646;48.696;9.114;2023-01-15T15:50:32;5.00;99.90
1307;DHT22;646;48.696;9.114;2023-01-15T15:52:59;4.70;99.90
1307;DHT22;646;48.696;9.114;2023-01-15T15:55:37;4.50;99.90
1307;DHT22;646;48.696;9.114;2023-01-15T15:58:04;4.60;99.90
1307;DHT22;646;48.696;9.114;2023-01-15T16:00:33;4.60;99.90
1307;DHT22;646;48.696;9.114;2023-01-15T16:03:06;4.70;99.90
1307;DHT22;646;48.696;9.114;2023-01-15T16:05:35;4.40;99.90
1307;DHT22;646;48.696;9.114;2023-01-15T16:08:17;4.40;99.90
1307;DHT22;646;48.696;9.114;2023-01-15T16:10:46;4.10;99.90
1307;DHT22;646;48.696;9.114;2023-01-15T16:13:22;4.10;99.90
1307;DHT22;646;48.696;9.114;2023-01-15T16:15:49;3.90;99.90
1307;DHT22;646;48.696;9.114;2023-01-15T16:21:07;3.80;99.90
1307;DHT22;646;48.696;9.114;2023-01-15T16:23:33;3.70;99.90
1307;DHT22;646;48.696;9.114;2023-01-15T16:26:11;3.80;99.90
1307;DHT22;646;48.696;9.114;2023-01-15T16:28:40;3.60;99.90
1307;DHT22;646;48.696;9.114;2023-01-15T16:31:08;3.70;99.90
1307;DHT22;646;48.696;9.114;2023-01-15T16:33:34;3.10;99.90
1307;DHT22;646;48.696;9.114;2023-01-15T16:36:01;3.50;99.90
1307;DHT22;646;48.696;9.114;2023-01-15T16:38:41;3.60;99.90
1307;DHT22;646;48.696;9.114;2023-01-15T16:41:20;3.50;99.90
1307;DHT22;646;48.696;9.114;2023-01-15T16:44:00;3.50;99.90
1307;DHT22;646;48.696;9.114;2023-01-15T16:46:38;3.40;99.90
1307;DHT22;646;48.696;9.114;2023-01-15T16:51:48;3.50;99.90
1307;DHT22;646;48.696;9.114;2023-01-15T17:01:53;2.60;99.90
1307;DHT22;646;48.696;9.114;2023-01-15T17:04:38;3.40;99.90
1307;DHT22;646;48.696;9.114;2023-01-15T17:07:31;3.30;99.90
1307;DHT22;646;48.696;9.114;2023-01-15T17:10:00;3.40;99.90
1307;DHT22;646;48.696;9.114;2023-01-15T17:14:53;3.30;99.90
1307;DHT22;646;48.696;9.114;2023-01-15T17:19:48;2.60;99.90
1307;DHT22;646;48.696;9.114;2023-01-15T17:24:48;3.10;99.90
1307;DHT22;646;48.696;9.114;2023-01-15T17:27:13;2.70;99.90
1307;DHT22;646;48.696;9.114;2023-01-15T17:29:39;3.40;99.90
1307;DHT22;646;48.696;9.114;2023-01-15T17:32:05;2.80;99.90
1307;DHT22;646;48.696;9.114;2023-01-15T17:34:30;3.10;99.90
1307;DHT22;646;48.696;9.114;2023-01-15T17:36:57;3.10;99.90
1307;DHT22;646;48.696;9.114;2023-01-15T17:39:23;3.20;99.90
1307;DHT22;646;48.696;9.114;2023-01-15T17:41:48;3.00;99.90
1307;DHT22;646;48.696;9.114;2023-01-15T17:44:14;3.00;99.90
1307;DHT22;646;48.696;9.114;2023-01-15T17:46:39;3.10;99.90
1307;DHT22;646;48.696;9.114;2023-01-15T17:49:05;3.20;99.90
1307;DHT22;646;48.696;9.114;2023-01-15T17:51:30;3.30;99.90
1307;DHT22;646;48.696;9.114;2023-01-15T17:53:56;3.20;99.90
1307;DHT22;646;48.696;9.114;2023-01-15T17:56:21;3.10;99.90
1307;DHT22;646;48.696;9.114;2023-01-15T17:59:07;3.10;99.90
1307;DHT22;646;48.696;9.114;2023-01-15T18:01:41;3.00;99.90
1307;DHT22;646;48.696;9.114;2023-01-15T18:04:41;3.10;99.90
1307;DHT22;646;48.696;9.114;2023-01-15T18:07:32;2.90;99.90
1307;DHT22;646;48.696;9.114;2023-01-15T18:09:59;3.10;99.90
1307;DHT22;646;48.696;9.114;2023-01-15T18:12:25;2.80;99.90
1307;DHT22;646;48.696;9.114;2023-01-15T18:14:50;3.00;99.90
1307;DHT22;646;48.696;9.114;2023-01-15T18:17:16;2.80;99.90
1307;DHT22;646;48.696;9.114;2023-01-15T18:19:42;2.80;99.90
1307;DHT22;646;48.696;9.114;2023-01-15T18:22:07;2.90;99.90
1307;DHT22;646;48.696;9.114;2023-01-15T18:24:34;2.80;99.90
1307;DHT22;646;48.696;9.114;2023-01-15T18:27:00;2.70;99.90
1307;DHT22;646;48.696;9.114;2023-01-15T18:29:25;2.90;99.90
1307;DHT22;646;48.696;9.114;2023-01-15T18:31:51;3.10;99.90
1307;DHT22;646;48.696;9.114;2023-01-15T18:34:16;3.10;99.90
1307;DHT22;646;48.696;9.114;2023-01-15T18:36:42;2.70;99.90
1307;DHT22;646;48.696;9.114;2023-01-15T18:39:08;2.70;99.90
1307;DHT22;646;48.696;9.114;2023-01-15T18:41:39;2.20;99.90
1307;DHT22;646;48.696;9.114;2023-01-15T18:44:13;3.10;99.90
1307;DHT22;646;48.696;9.114;2023-01-15T18:47:06;2.90;99.90
1307;DHT22;646;48.696;9.114;2023-01-15T18:49:34;2.90;99.90
1307;DHT22;646;48.696;9.114;2023-01-15T18:52:00;3.10;99.90
1307;DHT22;646;48.696;9.114;2023-01-15T18:54:44;3.10;99.90
1307;DHT22;646;48.696;9.114;2023-01-15T18:57:10;3.10;99.90
1307;DHT22;646;48.696;9.114;2023-01-15T18:59:36;3.00;99.90
1307;DHT22;646;48.696;9.114;2023-01-15T19:02:01;2.90;99.90
1307;DHT22;646;48.696;9.114;2023-01-15T19:04:27;3.10;99.90
1307;DHT22;646;48.696;9.114;2023-01-15T19:06:53;2.40;99.90
1307;DHT22;646;48.696;9.114;2023-01-15T19:09:18;2.80;99.90
1307;DHT22;646;48.696;9.114;2023-01-15T19:11:49;2.30;99.90
1307;DHT22;646;48.696;9.114;2023-01-15T19:14:15;2.80;99.90
1307;DHT22;646;48.696;9.114;2023-01-15T19:16:59;2.80;99.90